Time;durP1;ratioP1;P1;durP2;ratioP2;P2;SDS_P1;SDS_P2;PMS_P1;PMS_P2;Temp;Humidity;BMP_temperature;BMP_pressure;BME280_temperature;BME280_humidity;BME280_pressure;Samples;Min_cycle;Max_cycle;Signal;HPM_P1;HPM_P2
2022/03/12 00:01:08;;;;;;;9.50;5.95;;;5.90;47.40;;;;;;5041885;28;20079;-66
2022/03/12 00:03:35;;;;;;;14.15;6.32;;;5.90;47.60;;;;;;5050273;28;20385;-65
2022/03/12 00:06:02;;;;;;;13.43;6.22;;;5.90;47.50;;;;;;5061922;28;20085;-66
2022/03/12 00:08:45;;;;;;;10.15;6.53;;;5.80;48.00;;;;;;5062371;28;20425;-66
2022/03/12 00:11:20;;;;;;;10.40;6.05;;;5.70;48.00;;;;;;5055529;28;20040;-66
2022/03/12 00:13:46;;;;;;;12.38;7.25;;;5.80;47.80;;;;;;5055588;28;20117;-66
2022/03/12 00:16:14;;;;;;;8.57;6.00;;;5.70;48.00;;;;;;5059628;28;20076;-66
2022/03/12 00:18:42;;;;;;;10.95;6.88;;;5.60;48.40;;;;;;5047310;28;20052;-66
2022/03/12 00:21:10;;;;;;;14.32;6.90;;;5.60;48.30;;;;;;5056064;28;20183;-66
2022/03/12 00:23:36;;;;;;;15.68;6.35;;;5.60;48.60;;;;;;5062444;28;20055;-66
2022/03/12 00:26:03;;;;;;;11.30;6.57;;;5.60;48.60;;;;;;5052592;28;20032;-66
2022/03/12 00:28:28;;;;;;;12.20;6.57;;;5.60;48.70;;;;;;5058036;28;20047;-66
2022/03/12 00:30:54;;;;;;;11.23;6.05;;;5.50;48.90;;;;;;5057910;28;20357;-67
2022/03/12 00:33:21;;;;;;;12.20;6.50;;;5.50;49.00;;;;;;5067120;28;20093;-67
2022/03/12 00:35:51;;;;;;;12.88;6.45;;;5.50;49.20;;;;;;5062699;28;20049;-66
2022/03/12 00:38:19;;;;;;;10.70;6.22;;;5.50;49.40;;;;;;5054635;28;20060;-66
2022/03/12 00:40:45;;;;;;;11.35;5.72;;;5.40;49.60;;;;;;5058159;28;20529;-64
2022/03/12 00:43:11;;;;;;;11.95;6.60;;;5.40;49.80;;;;;;5057977;28;20036;-66
2022/03/12 00:45:37;;;;;;;9.65;6.18;;;5.30;49.80;;;;;;5065167;28;20150;-66
2022/03/12 00:48:04;;;;;;;11.85;7.00;;;5.30;50.20;;;;;;5054478;28;20423;-66
2022/03/12 00:50:29;;;;;;;12.80;6.82;;;5.20;50.50;;;;;;5032137;28;20033;-65
2022/03/12 00:52:55;;;;;;;12.48;6.32;;;5.20;51.00;;;;;;5054637;28;20302;-66
2022/03/12 00:55:20;;;;;;;11.15;7.03;;;5.10;51.20;;;;;;5064614;28;20043;-66
2022/03/12 00:57:46;;;;;;;12.38;6.32;;;5.10;51.40;;;;;;5068349;28;20442;-66
2022/03/12 01:00:15;;;;;;;14.40;5.93;;;5.00;51.30;;;;;;5062616;28;20064;-66
2022/03/12 01:02:41;;;;;;;15.25;6.95;;;5.00;51.20;;;;;;5054400;28;20047;-67
2022/03/12 01:05:07;;;;;;;11.88;6.32;;;5.00;51.60;;;;;;5050372;28;20136;-67
2022/03/12 01:07:33;;;;;;;15.13;6.78;;;5.00;51.60;;;;;;5062903;28;20055;-66
2022/03/12 01:09:59;;;;;;;11.90;6.45;;;5.00;51.70;;;;;;5051295;28;20366;-65
2022/03/12 01:12:25;;;;;;;12.93;6.45;;;5.00;51.40;;;;;;5067418;28;20110;-66
2022/03/12 01:14:51;;;;;;;10.90;6.47;;;5.00;51.60;;;;;;5047030;28;20079;-65
2022/03/12 01:17:16;;;;;;;12.90;6.63;;;5.00;51.30;;;;;;5036526;28;20037;-66
2022/03/12 01:19:42;;;;;;;12.77;6.38;;;5.10;51.30;;;;;;5046538;28;20053;-66
2022/03/12 01:22:07;;;;;;;13.55;6.20;;;5.10;51.40;;;;;;5038953;28;20108;-68
2022/03/12 01:24:34;;;;;;;13.60;6.50;;;5.10;51.40;;;;;;5053067;28;20059;-66
2022/03/12 01:26:59;;;;;;;12.02;6.82;;;5.10;51.50;;;;;;5065564;28;20359;-65
2022/03/12 01:29:25;;;;;;;9.73;6.10;;;5.10;51.50;;;;;;5055408;28;20043;-65
2022/03/12 01:31:51;;;;;;;11.05;5.60;;;5.10;51.30;;;;;;5046549;28;20074;-66
2022/03/12 01:34:17;;;;;;;15.35;7.07;;;5.10;51.00;;;;;;5066543;28;20039;-65
2022/03/12 01:36:43;;;;;;;13.50;6.35;;;5.10;51.00;;;;;;5050002;28;20053;-66
2022/03/12 01:39:09;;;;;;;13.88;6.53;;;5.20;51.00;;;;;;5054390;28;20044;-66
2022/03/12 01:41:40;;;;;;;11.32;6.32;;;5.20;51.10;;;;;;5057151;28;20029;-65
2022/03/12 01:44:06;;;;;;;11.75;5.72;;;5.20;50.80;;;;;;5046208;28;20557;-67
2022/03/12 01:46:34;;;;;;;10.68;6.13;;;5.30;50.50;;;;;;5039411;28;20047;-67
2022/03/12 01:49:06;;;;;;;11.35;6.60;;;5.20;50.50;;;;;;5052294;28;20052;-65
2022/03/12 01:51:33;;;;;;;13.98;6.90;;;5.30;50.30;;;;;;5062845;28;20041;-66
2022/03/12 01:54:01;;;;;;;11.13;6.30;;;5.30;50.40;;;;;;5056846;28;20056;-64
2022/03/12 01:56:29;;;;;;;15.30;6.55;;;5.30;50.40;;;;;;5039325;28;20071;-66
2022/03/12 01:58:57;;;;;;;9.55;6.03;;;5.30;50.40;;;;;;5037218;28;20041;-66
2022/03/12 02:01:28;;;;;;;13.93;7.10;;;5.30;50.50;;;;;;5042804;28;20127;-66
2022/03/12 02:03:54;;;;;;;12.40;7.00;;;5.30;50.60;;;;;;5039585;28;20132;-66
2022/03/12 02:06:21;;;;;;;15.35;6.78;;;5.30;50.40;;;;;;5038785;28;20056;-65
2022/03/12 02:08:49;;;;;;;16.70;6.95;;;5.30;51.00;;;;;;5056682;28;20040;-65
2022/03/12 02:11:25;;;;;;;14.65;7.05;;;5.30;50.90;;;;;;5034249;28;20123;-66
2022/03/12 02:13:59;;;;;;;18.33;7.72;;;5.30;50.80;;;;;;5064058;28;20540;-66
2022/03/12 02:16:25;;;;;;;10.55;6.30;;;5.20;51.10;;;;;;5055481;28;20529;-68
2022/03/12 02:18:51;;;;;;;11.50;7.55;;;5.20;50.60;;;;;;5050656;28;20148;-65
2022/03/12 02:21:34;;;;;;;11.00;6.70;;;5.20;50.70;;;;;;5053308;28;20118;-66
2022/03/12 02:24:02;;;;;;;12.30;6.70;;;5.30;51.00;;;;;;5037705;28;20809;-66
2022/03/12 02:26:28;;;;;;;10.70;6.25;;;5.20;50.90;;;;;;5058158;28;20119;-66
2022/03/12 02:28:53;;;;;;;13.00;6.78;;;5.20;51.00;;;;;;5062363;28;20116;-66
2022/03/12 02:31:25;;;;;;;12.40;6.85;;;5.20;50.80;;;;;;5061511;28;20110;-65
2022/03/12 02:33:51;;;;;;;9.18;6.53;;;5.20;50.90;;;;;;5050710;28;20337;-66
2022/03/12 02:36:27;;;;;;;11.48;6.82;;;5.20;51.20;;;;;;5051864;28;20037;-66
2022/03/12 02:38:53;;;;;;;15.98;6.93;;;5.20;51.10;;;;;;5033524;28;20146;-66
2022/03/12 02:41:22;;;;;;;14.93;7.28;;;5.20;51.00;;;;;;5048805;28;20053;-65
2022/03/12 02:43:48;;;;;;;13.25;7.03;;;5.10;51.10;;;;;;5031177;28;20637;-65
2022/03/12 02:46:14;;;;;;;11.82;7.57;;;5.20;50.60;;;;;;5053628;28;20040;-65
2022/03/12 02:48:43;;;;;;;10.93;7.07;;;5.20;50.80;;;;;;5062090;28;20056;-66
2022/03/12 02:51:09;;;;;;;12.40;6.57;;;5.20;50.40;;;;;;5065329;28;20041;-66
2022/03/12 02:53:35;;;;;;;15.80;7.53;;;5.20;50.60;;;;;;5063024;28;20672;-65
2022/03/12 02:56:00;;;;;;;13.02;6.53;;;5.20;50.80;;;;;;5066768;28;20033;-64
2022/03/12 02:58:27;;;;;;;11.93;6.13;;;5.20;50.60;;;;;;5056701;28;20452;-66
2022/03/12 03:00:53;;;;;;;12.10;6.25;;;5.20;50.70;;;;;;5060268;28;20063;-65
2022/03/12 03:03:19;;;;;;;11.68;6.50;;;5.20;50.80;;;;;;5051860;28;20387;-65
2022/03/12 03:05:47;;;;;;;15.00;7.03;;;5.20;50.70;;;;;;5059908;28;20040;-65
2022/03/12 03:08:18;;;;;;;13.32;6.65;;;5.20;50.80;;;;;;5068513;28;20452;-65
2022/03/12 03:10:46;;;;;;;11.68;6.80;;;5.20;50.80;;;;;;5061198;28;20164;-66
2022/03/12 03:13:18;;;;;;;13.85;6.88;;;5.20;50.70;;;;;;5047646;28;20082;-66
2022/03/12 03:15:53;;;;;;;11.68;6.90;;;5.20;50.70;;;;;;5058224;28;20124;-65
2022/03/12 03:18:22;;;;;;;14.18;6.88;;;5.20;50.70;;;;;;5053529;28;20075;-66
2022/03/12 03:20:50;;;;;;;14.52;6.80;;;5.20;50.80;;;;;;5058328;28;20044;-65
2022/03/12 03:23:16;;;;;;;13.43;7.07;;;5.10;51.10;;;;;;5056750;28;20162;-66
2022/03/12 03:25:42;;;;;;;10.27;6.43;;;5.10;51.40;;;;;;5044837;28;20056;-66
2022/03/12 03:28:08;;;;;;;10.90;6.75;;;5.10;51.70;;;;;;5067914;28;20041;-66
2022/03/12 03:30:36;;;;;;;13.45;7.05;;;5.10;52.20;;;;;;5057527;28;20037;-66
2022/03/12 03:33:07;;;;;;;11.77;6.53;;;5.00;51.60;;;;;;5064988;28;20044;-66
2022/03/12 03:35:33;;;;;;;15.40;6.28;;;5.10;51.80;;;;;;5067399;28;20173;-65
2022/03/12 03:37:59;;;;;;;13.63;7.50;;;5.00;51.90;;;;;;5059012;28;20037;-66
2022/03/12 03:40:27;;;;;;;10.68;6.72;;;5.00;51.90;;;;;;5056358;28;20040;-68
2022/03/12 03:42:53;;;;;;;15.63;7.55;;;5.00;51.70;;;;;;5060054;28;20421;-65
2022/03/12 03:45:27;;;;;;;11.93;6.55;;;5.00;52.00;;;;;;5058583;28;20135;-66
2022/03/12 03:47:54;;;;;;;13.45;6.90;;;5.00;51.90;;;;;;5062052;28;20384;-65
2022/03/12 03:50:25;;;;;;;11.65;6.65;;;5.00;52.30;;;;;;5053649;28;20197;-67
2022/03/12 03:52:56;;;;;;;11.77;6.75;;;5.00;52.50;;;;;;5044339;28;20043;-66
2022/03/12 03:55:25;;;;;;;14.60;6.63;;;4.90;52.60;;;;;;5052526;28;20044;-66
2022/03/12 03:57:53;;;;;;;15.75;7.55;;;4.90;52.50;;;;;;5059375;28;20157;-66
2022/03/12 04:00:21;;;;;;;12.55;6.80;;;4.80;53.00;;;;;;5058843;28;20040;-65
2022/03/12 04:02:47;;;;;;;12.93;6.35;;;4.80;53.00;;;;;;5049714;28;20091;-67
2022/03/12 04:05:13;;;;;;;12.85;7.05;;;4.70;53.20;;;;;;5056716;28;20068;-65
2022/03/12 04:07:38;;;;;;;11.85;6.22;;;4.60;53.20;;;;;;5058519;28;20425;-65
2022/03/12 04:10:04;;;;;;;11.18;6.63;;;4.60;53.30;;;;;;5052779;28;20064;-66
2022/03/12 04:12:30;;;;;;;12.07;6.93;;;4.60;53.30;;;;;;5040777;28;20074;-65
2022/03/12 04:14:57;;;;;;;10.57;6.78;;;4.50;53.50;;;;;;5064343;28;20131;-66
2022/03/12 04:17:23;;;;;;;11.77;6.55;;;4.50;53.20;;;;;;5051409;28;20052;-66
2022/03/12 04:19:49;;;;;;;14.90;6.65;;;4.40;53.30;;;;;;5054354;28;20045;-66
2022/03/12 04:22:16;;;;;;;13.18;6.70;;;4.40;53.70;;;;;;5041398;28;20051;-66
2022/03/12 04:24:42;;;;;;;13.10;6.78;;;4.40;53.70;;;;;;5057841;28;20060;-66
2022/03/12 04:27:08;;;;;;;13.90;6.90;;;4.30;53.70;;;;;;5047706;28;20048;-66
2022/03/12 04:29:33;;;;;;;13.32;6.78;;;4.30;54.00;;;;;;5068151;28;20429;-65
2022/03/12 04:31:59;;;;;;;8.57;5.95;;;4.20;54.40;;;;;;5047367;28;20625;-66
2022/03/12 04:34:25;;;;;;;9.55;6.35;;;4.10;54.40;;;;;;5051804;28;20029;-66
2022/03/12 04:36:52;;;;;;;9.90;5.80;;;4.10;54.60;;;;;;5052514;28;20131;-66
2022/03/12 04:39:17;;;;;;;11.02;7.00;;;4.10;54.60;;;;;;5031154;28;20123;-66
2022/03/12 04:41:43;;;;;;;13.82;6.80;;;4.10;54.80;;;;;;5061363;28;20461;-65
2022/03/12 04:44:09;;;;;;;13.98;7.00;;;4.10;54.90;;;;;;5057101;28;20064;-66
2022/03/12 04:46:35;;;;;;;11.55;6.22;;;4.10;54.70;;;;;;5058020;28;20033;-66
2022/03/12 04:49:02;;;;;;;11.70;6.43;;;4.10;54.50;;;;;;5052291;28;20505;-66
2022/03/12 04:51:29;;;;;;;10.73;6.15;;;4.10;54.50;;;;;;5067067;28;20072;-67
2022/03/12 04:53:59;;;;;;;13.75;7.03;;;4.00;54.60;;;;;;5051170;28;20040;-66
2022/03/12 04:56:25;;;;;;;11.30;6.82;;;4.00;54.50;;;;;;5054522;28;20120;-65
2022/03/12 04:58:53;;;;;;;12.77;6.35;;;3.90;54.90;;;;;;5053980;28;20036;-65
2022/03/12 05:01:20;;;;;;;12.00;6.00;;;4.00;54.70;;;;;;5058968;28;20074;-67
2022/03/12 05:03:46;;;;;;;11.50;6.75;;;3.90;54.80;;;;;;5036673;28;20063;-66
2022/03/12 05:06:13;;;;;;;12.07;6.32;;;3.90;54.80;;;;;;5053939;28;20041;-66
2022/03/12 05:08:39;;;;;;;11.70;6.47;;;3.80;55.00;;;;;;5029062;28;20146;-66
2022/03/12 05:11:05;;;;;;;12.93;6.13;;;3.80;55.00;;;;;;5064700;28;20071;-66
2022/03/12 05:13:31;;;;;;;11.30;6.47;;;3.80;55.30;;;;;;5057268;28;20036;-66
2022/03/12 05:16:05;;;;;;;11.00;5.75;;;3.70;55.00;;;;;;5054101;28;20441;-66
2022/03/12 05:18:32;;;;;;;10.30;6.20;;;3.70;55.00;;;;;;5053349;28;20162;-66
2022/03/12 05:20:57;;;;;;;10.98;6.45;;;3.60;55.20;;;;;;5056756;28;20044;-66
2022/03/12 05:23:24;;;;;;;12.63;6.18;;;3.60;55.20;;;;;;5060449;28;20032;-66
2022/03/12 05:25:51;;;;;;;11.05;6.25;;;3.60;56.30;;;;;;5051790;28;20348;-65
2022/03/12 05:28:26;;;;;;;8.85;5.63;;;3.50;56.50;;;;;;5055337;28;20182;-66
2022/03/12 05:30:56;;;;;;;10.63;6.25;;;3.40;56.40;;;;;;5051345;28;20044;-65
2022/03/12 05:33:22;;;;;;;11.02;6.22;;;3.30;56.90;;;;;;5033495;28;20334;-66
2022/03/12 05:35:54;;;;;;;10.25;5.90;;;3.20;57.20;;;;;;5050484;28;20211;-65
2022/03/12 05:38:21;;;;;;;13.85;6.13;;;3.30;57.10;;;;;;5049837;28;20060;-66
2022/03/12 05:40:48;;;;;;;12.63;5.93;;;3.20;56.90;;;;;;5058824;28;20044;-66
2022/03/12 05:43:15;;;;;;;9.50;5.35;;;3.30;56.80;;;;;;5037872;28;20119;-65
2022/03/12 05:45:53;;;;;;;10.85;5.90;;;3.20;56.90;;;;;;5055531;28;20090;-65
2022/03/12 05:48:19;;;;;;;11.23;6.30;;;3.20;57.20;;;;;;5047617;28;20048;-65
2022/03/12 05:50:50;;;;;;;11.30;5.93;;;3.20;56.90;;;;;;5063061;28;20036;-65
2022/03/12 05:53:19;;;;;;;12.95;6.00;;;3.30;57.00;;;;;;5050189;28;20124;-65
2022/03/12 05:55:47;;;;;;;12.30;5.30;;;3.20;56.90;;;;;;5057651;28;20078;-66
2022/03/12 05:58:17;;;;;;;11.18;6.05;;;3.20;57.20;;;;;;5051423;28;20438;-65
2022/03/12 06:00:43;;;;;;;10.18;5.55;;;3.10;57.30;;;;;;5055825;28;20036;-65
2022/03/12 06:03:10;;;;;;;10.82;5.90;;;3.10;57.40;;;;;;5053314;28;20344;-65
2022/03/12 06:05:40;;;;;;;8.45;5.28;;;3.10;57.20;;;;;;5044045;28;20037;-65
2022/03/12 06:08:07;;;;;;;9.82;5.38;;;3.20;57.10;;;;;;5060585;28;20048;-66
2022/03/12 06:10:34;;;;;;;12.13;5.65;;;3.20;57.00;;;;;;5040126;28;20215;-64
2022/03/12 06:13:01;;;;;;;9.98;5.22;;;3.10;57.40;;;;;;5054445;28;20044;-65
2022/03/12 06:15:27;;;;;;;12.77;5.68;;;3.10;57.30;;;;;;5056701;28;20045;-65
2022/03/12 06:17:54;;;;;;;13.50;5.93;;;3.10;57.50;;;;;;5046895;28;20040;-65
2022/03/12 06:20:21;;;;;;;10.90;5.60;;;3.20;57.10;;;;;;5058653;28;20041;-65
2022/03/12 06:22:48;;;;;;;11.02;5.57;;;3.30;57.30;;;;;;5052481;28;20048;-65
2022/03/12 06:25:16;;;;;;;13.20;6.10;;;3.40;56.90;;;;;;5067513;28;20091;-65
2022/03/12 06:27:43;;;;;;;9.77;5.97;;;3.50;56.50;;;;;;5066520;28;20467;-65
2022/03/12 06:30:12;;;;;;;11.93;5.93;;;3.60;56.20;;;;;;5062087;28;20052;-65
2022/03/12 06:32:39;;;;;;;12.05;5.28;;;3.70;56.60;;;;;;5051681;28;20041;-66
2022/03/12 06:35:06;;;;;;;11.27;5.53;;;3.70;56.40;;;;;;5065852;28;20045;-64
2022/03/12 06:37:32;;;;;;;10.93;4.95;;;3.80;56.00;;;;;;5060798;28;20075;-64
2022/03/12 06:39:58;;;;;;;11.82;5.50;;;3.90;55.90;;;;;;5038833;28;20089;-64
2022/03/12 06:42:25;;;;;;;9.40;5.72;;;3.90;55.80;;;;;;5060112;28;20052;-64
2022/03/12 06:44:53;;;;;;;10.98;5.47;;;4.00;55.70;;;;;;5038996;28;20052;-65
2022/03/12 06:47:19;;;;;;;8.38;4.97;;;4.00;55.80;;;;;;5049343;28;20040;-65
2022/03/12 06:49:45;;;;;;;8.48;4.90;;;4.00;55.70;;;;;;5055988;28;20075;-64
2022/03/12 06:52:10;;;;;;;10.52;5.63;;;4.00;56.00;;;;;;5043694;28;20101;-65
2022/03/12 06:54:36;;;;;;;15.35;5.68;;;4.00;57.00;;;;;;5059662;28;20075;-65
2022/03/12 06:57:04;;;;;;;10.63;5.70;;;4.10;55.90;;;;;;5055479;28;20036;-65
2022/03/12 06:59:30;;;;;;;12.27;5.70;;;4.20;55.90;;;;;;5058715;28;20352;-64
2022/03/12 07:01:55;;;;;;;11.40;5.57;;;4.20;55.50;;;;;;5057302;28;20040;-65
2022/03/12 07:04:21;;;;;;;8.85;5.15;;;4.30;55.40;;;;;;5037075;28;20402;-64
2022/03/12 07:06:48;;;;;;;10.40;5.95;;;4.40;55.40;;;;;;5037604;28;20124;-65
2022/03/12 07:09:14;;;;;;;10.10;5.68;;;4.50;55.60;;;;;;5053001;28;20045;-65
2022/03/12 07:11:40;;;;;;;7.55;5.00;;;4.60;55.20;;;;;;5061220;28;20488;-65
2022/03/12 07:14:06;;;;;;;11.90;5.22;;;4.60;54.90;;;;;;5058993;28;20056;-64
2022/03/12 07:16:31;;;;;;;9.80;5.28;;;4.70;54.70;;;;;;5056876;28;20193;-65
2022/03/12 07:18:57;;;;;;;9.57;5.25;;;4.80;54.60;;;;;;5061945;28;20052;-64
2022/03/12 07:21:24;;;;;;;10.27;5.97;;;4.90;54.50;;;;;;5059385;28;20049;-65
2022/03/12 07:23:50;;;;;;;11.13;6.47;;;5.00;54.40;;;;;;5064918;28;20028;-64
2022/03/12 07:26:15;;;;;;;11.02;6.47;;;5.10;54.00;;;;;;5056248;28;20483;-67
2022/03/12 07:28:41;;;;;;;10.27;5.90;;;5.10;53.70;;;;;;5057347;28;20039;-65
2022/03/12 07:31:07;;;;;;;11.82;6.05;;;5.20;53.80;;;;;;5062324;28;20465;-67
2022/03/12 07:33:33;;;;;;;11.00;5.60;;;5.20;53.30;;;;;;5059909;28;20598;-66
2022/03/12 07:35:59;;;;;;;10.23;5.85;;;5.20;53.30;;;;;;5054879;28;20108;-63
2022/03/12 07:38:25;;;;;;;9.57;5.43;;;5.30;52.90;;;;;;5054997;28;20032;-66
2022/03/12 07:40:51;;;;;;;14.25;5.70;;;5.20;52.90;;;;;;5057069;28;20120;-66
2022/03/12 07:43:16;;;;;;;12.45;6.47;;;5.30;53.70;;;;;;5058510;28;20036;-65
2022/03/12 07:45:43;;;;;;;13.63;6.68;;;5.20;54.50;;;;;;5062960;28;20496;-66
2022/03/12 07:48:09;;;;;;;11.60;6.03;;;5.20;54.20;;;;;;5051693;28;20120;-64
2022/03/12 07:50:35;;;;;;;12.95;6.35;;;5.30;54.00;;;;;;5044500;28;20173;-66
2022/03/12 07:53:00;;;;;;;9.70;5.95;;;5.30;54.30;;;;;;5059579;28;20455;-64
2022/03/12 07:55:26;;;;;;;9.48;5.82;;;5.50;54.10;;;;;;5052388;28;20064;-65
2022/03/12 07:57:52;;;;;;;13.50;6.55;;;5.70;53.90;;;;;;5057167;28;20040;-66
2022/03/12 08:00:18;;;;;;;12.02;6.70;;;6.00;53.70;;;;;;5056914;28;20460;-66
2022/03/12 08:02:46;;;;;;;11.85;6.18;;;6.30;52.90;;;;;;5051301;28;20496;-65
2022/03/12 08:05:23;;;;;;;9.88;6.38;;;6.60;52.40;;;;;;5052802;28;20429;-65
2022/03/12 08:07:50;;;;;;;14.30;6.72;;;7.10;51.90;;;;;;5050761;28;20048;-64
2022/03/12 08:10:16;;;;;;;11.07;6.45;;;7.50;50.50;;;;;;5057704;28;20064;-65
2022/03/12 08:12:43;;;;;;;11.00;6.78;;;7.90;50.50;;;;;;5054656;28;20059;-64
2022/03/12 08:15:09;;;;;;;10.57;6.38;;;8.10;48.60;;;;;;5056314;28;20060;-65
2022/03/12 08:17:35;;;;;;;15.45;6.82;;;8.30;48.80;;;;;;5055992;28;20504;-65
2022/03/12 08:20:05;;;;;;;10.77;6.25;;;8.30;49.00;;;;;;5061450;28;20048;-65
2022/03/12 08:22:30;;;;;;;10.75;6.68;;;8.40;48.50;;;;;;5059202;28;20052;-64
2022/03/12 08:24:56;;;;;;;13.05;7.13;;;8.30;49.00;;;;;;5052277;28;20036;-64
2022/03/12 08:27:21;;;;;;;13.77;7.00;;;8.10;49.30;;;;;;5057090;28;20033;-65
2022/03/12 08:29:47;;;;;;;11.50;6.70;;;8.00;49.50;;;;;;5063278;28;20128;-65
2022/03/12 08:32:12;;;;;;;11.85;7.00;;;7.90;49.70;;;;;;5055918;28;20044;-64
2022/03/12 08:34:38;;;;;;;13.45;6.65;;;7.90;50.20;;;;;;5050330;28;20036;-63
2022/03/12 08:37:04;;;;;;;9.00;6.13;;;7.90;49.80;;;;;;5050214;28;20140;-65
2022/03/12 08:39:31;;;;;;;13.98;6.55;;;7.90;50.20;;;;;;5052172;28;20123;-66
2022/03/12 08:41:56;;;;;;;11.23;7.07;;;8.00;50.50;;;;;;5057508;28;20206;-64
2022/03/12 08:44:22;;;;;;;11.90;6.95;;;8.00;50.00;;;;;;5059090;28;20223;-65
2022/03/12 08:46:48;;;;;;;16.40;7.00;;;8.10;49.70;;;;;;5060255;28;20079;-65
2022/03/12 08:49:14;;;;;;;12.95;7.45;;;8.30;49.50;;;;;;5075256;28;20138;-65
2022/03/12 08:51:41;;;;;;;12.05;7.03;;;8.40;49.40;;;;;;5071089;28;20037;-67
2022/03/12 08:54:08;;;;;;;11.13;6.82;;;8.60;48.30;;;;;;5066773;28;20167;-64
2022/03/12 08:56:35;;;;;;;12.88;6.95;;;8.70;48.30;;;;;;5059971;28;20094;-65
2022/03/12 08:59:01;;;;;;;12.32;7.20;;;8.80;48.70;;;;;;5048093;28;20039;-64
2022/03/12 09:01:26;;;;;;;11.45;7.03;;;9.10;49.60;;;;;;5049205;28;20037;-65
2022/03/12 09:03:52;;;;;;;13.23;7.22;;;9.20;48.10;;;;;;5061077;28;20044;-65
2022/03/12 09:06:19;;;;;;;11.73;6.30;;;9.30;48.10;;;;;;5057299;28;20040;-64
2022/03/12 09:08:46;;;;;;;11.00;6.78;;;9.50;48.40;;;;;;5065261;28;20071;-64
2022/03/12 09:11:16;;;;;;;12.73;6.90;;;9.60;48.80;;;;;;5062407;28;20037;-67
2022/03/12 09:13:41;;;;;;;11.95;7.60;;;9.70;48.00;;;;;;5049050;28;20037;-64
2022/03/12 09:16:07;;;;;;;15.38;7.30;;;9.80;47.90;;;;;;5049239;28;20430;-64
2022/03/12 09:18:33;;;;;;;11.68;7.38;;;10.00;48.40;;;;;;5059305;28;20121;-65
2022/03/12 09:20:58;;;;;;;12.23;6.97;;;10.10;48.00;;;;;;5057983;28;20044;-66
2022/03/12 09:23:24;;;;;;;14.30;7.90;;;10.20;48.00;;;;;;5048894;28;20560;-64
2022/03/12 09:25:50;;;;;;;10.95;7.28;;;10.30;48.20;;;;;;5054440;28;20111;-66
2022/03/12 09:28:18;;;;;;;12.35;7.53;;;10.40;48.20;;;;;;5056507;28;20047;-70
2022/03/12 09:30:50;;;;;;;11.25;7.18;;;10.60;48.50;;;;;;5036453;28;20775;-64
2022/03/12 09:33:17;;;;;;;11.90;8.30;;;10.70;48.20;;;;;;5039096;28;20504;-66
2022/03/12 09:35:43;;;;;;;13.43;7.78;;;10.80;48.80;;;;;;5056447;28;20239;-66
2022/03/12 09:38:10;;;;;;;12.73;6.90;;;11.00;49.60;;;;;;5031478;28;20576;-65
2022/03/12 09:40:35;;;;;;;11.60;7.53;;;11.10;49.30;;;;;;5054071;28;20040;-65
2022/03/12 09:43:02;;;;;;;11.15;7.57;;;11.10;48.30;;;;;;5061255;28;20049;-65
2022/03/12 09:45:28;;;;;;;15.63;7.70;;;11.20;49.50;;;;;;5063681;28;20041;-64
2022/03/12 09:47:54;;;;;;;13.15;7.82;;;11.20;49.90;;;;;;5053598;28;20037;-64
2022/03/12 09:50:21;;;;;;;16.92;7.68;;;11.20;50.10;;;;;;5065148;28;20415;-66
2022/03/12 09:52:47;;;;;;;15.13;7.32;;;11.50;50.90;;;;;;5054513;28;20468;-66
2022/03/12 09:55:13;;;;;;;13.50;7.78;;;11.60;51.20;;;;;;5054560;28;20124;-64
2022/03/12 09:57:38;;;;;;;12.50;7.45;;;11.60;51.10;;;;;;5057123;28;20041;-63
2022/03/12 10:00:06;;;;;;;13.77;7.38;;;11.70;51.40;;;;;;5062435;28;20141;-64
2022/03/12 10:02:32;;;;;;;11.48;7.13;;;11.80;51.20;;;;;;5049321;28;20071;-65
2022/03/12 10:04:57;;;;;;;14.35;7.47;;;11.80;51.10;;;;;;5057019;28;20079;-65
2022/03/12 10:07:23;;;;;;;12.68;7.95;;;12.00;51.40;;;;;;5050519;28;20716;-66
2022/03/12 10:09:49;;;;;;;12.48;7.22;;;12.20;51.30;;;;;;5058982;28;20531;-66
2022/03/12 10:12:15;;;;;;;13.95;8.00;;;12.30;51.50;;;;;;5045574;28;20044;-65
2022/03/12 10:14:40;;;;;;;16.15;7.97;;;12.40;51.40;;;;;;5065486;28;20032;-65
2022/03/12 10:17:06;;;;;;;12.15;7.60;;;12.40;51.20;;;;;;5045793;28;20040;-64
2022/03/12 10:19:38;;;;;;;12.30;7.10;;;12.40;52.10;;;;;;5046608;28;20048;-64
2022/03/12 10:22:05;;;;;;;15.15;7.93;;;12.50;52.80;;;;;;5066917;28;20048;-63
2022/03/12 10:24:31;;;;;;;13.55;7.90;;;12.50;53.40;;;;;;5051777;28;20047;-63
2022/03/12 10:26:57;;;;;;;11.63;7.82;;;12.50;53.00;;;;;;5054681;28;20131;-64
2022/03/12 10:29:22;;;;;;;13.23;7.55;;;12.70;53.30;;;;;;5056098;28;20040;-64
2022/03/12 10:31:48;;;;;;;15.63;7.93;;;12.80;53.80;;;;;;5045531;28;20040;-67
2022/03/12 10:34:15;;;;;;;13.18;7.70;;;12.70;53.80;;;;;;5052660;28;20119;-65
2022/03/12 10:36:40;;;;;;;12.70;7.85;;;12.80;53.80;;;;;;5051209;28;20103;-64
2022/03/12 10:39:06;;;;;;;12.13;7.72;;;13.00;54.20;;;;;;5046488;28;20073;-65
2022/03/12 10:41:32;;;;;;;14.32;7.38;;;13.10;54.80;;;;;;5045533;28;20033;-64
2022/03/12 10:43:58;;;;;;;13.35;7.88;;;13.20;55.00;;;;;;5051263;28;20127;-66
2022/03/12 10:46:28;;;;;;;11.82;7.55;;;13.10;55.60;;;;;;5047100;28;20194;-63
2022/03/12 10:48:57;;;;;;;12.75;7.75;;;13.20;56.00;;;;;;5050005;28;20033;-64
2022/03/12 10:51:30;;;;;;;13.75;7.65;;;13.20;56.10;;;;;;5047442;28;20056;-66
2022/03/12 10:54:07;;;;;;;14.65;7.63;;;13.10;55.70;;;;;;5046065;28;20087;-63
2022/03/12 10:56:52;;;;;;;11.55;7.65;;;13.30;55.90;;;;;;5064050;28;20103;-65
2022/03/12 10:59:24;;;;;;;13.38;8.23;;;13.20;56.00;;;;;;5052160;28;20044;-64
2022/03/12 11:01:56;;;;;;;14.25;7.95;;;13.10;56.60;;;;;;5049401;28;20373;-65
2022/03/12 11:04:27;;;;;;;15.75;8.27;;;13.20;56.60;;;;;;5053267;28;20045;-66
2022/03/12 11:06:55;;;;;;;15.88;8.68;;;13.20;55.90;;;;;;5032394;28;20041;-64
2022/03/12 11:09:39;;;;;;;13.07;8.18;;;13.20;56.30;;;;;;5060010;28;20757;-66
2022/03/12 11:12:31;;;;;;;13.13;7.63;;;13.30;56.50;;;;;;5042883;28;20040;-64
2022/03/12 11:15:11;;;;;;;17.63;8.20;;;13.30;56.30;;;;;;5055406;28;20048;-65
2022/03/12 11:17:44;;;;;;;13.40;7.60;;;13.20;55.80;;;;;;5046678;28;20048;-65
2022/03/12 11:20:14;;;;;;;12.35;9.10;;;13.30;56.30;;;;;;5053963;28;20049;-65
2022/03/12 11:22:40;;;;;;;14.23;7.90;;;13.40;55.90;;;;;;5048256;28;20095;-66
2022/03/12 11:25:12;;;;;;;14.27;8.50;;;13.50;55.90;;;;;;5046672;28;20076;-65
2022/03/12 11:27:38;;;;;;;12.88;7.47;;;13.50;56.30;;;;;;5051210;28;20049;-64
2022/03/12 11:30:09;;;;;;;12.55;7.88;;;13.60;56.80;;;;;;5040053;28;20091;-65
2022/03/12 11:32:44;;;;;;;11.90;7.90;;;13.60;57.10;;;;;;5053432;28;20419;-66
2022/03/12 11:35:11;;;;;;;13.30;8.35;;;13.60;57.40;;;;;;5047798;28;20350;-66
2022/03/12 11:37:38;;;;;;;13.43;8.30;;;13.90;57.20;;;;;;5044232;28;20049;-67
2022/03/12 11:40:16;;;;;;;13.68;8.00;;;14.00;56.70;;;;;;5057674;28;20048;-64
2022/03/12 11:42:42;;;;;;;12.55;8.25;;;14.10;56.90;;;;;;5049501;28;20064;-63
2022/03/12 11:45:15;;;;;;;14.23;8.35;;;13.90;57.10;;;;;;5037584;28;22251;-65
2022/03/12 11:47:43;;;;;;;15.00;8.15;;;13.90;58.60;;;;;;5045121;28;20039;-65
2022/03/12 11:50:23;;;;;;;14.43;8.35;;;13.80;58.00;;;;;;5056411;28;21070;-65
2022/03/12 11:52:49;;;;;;;14.05;8.88;;;13.70;58.30;;;;;;5054296;28;20102;-65
2022/03/12 11:55:22;;;;;;;17.45;9.40;;;13.80;58.50;;;;;;5055559;28;20136;-66
2022/03/12 11:57:50;;;;;;;16.00;8.43;;;13.80;58.20;;;;;;5053505;28;20044;-66
2022/03/12 12:00:25;;;;;;;14.75;8.77;;;13.80;58.30;;;;;;5052381;28;20041;-64
2022/03/12 12:02:53;;;;;;;14.20;8.88;;;13.80;59.30;;;;;;5054586;28;20067;-63
2022/03/12 12:05:22;;;;;;;11.98;7.55;;;13.60;58.80;;;;;;5049247;28;20049;-65
2022/03/12 12:07:48;;;;;;;15.32;8.65;;;13.70;59.00;;;;;;5060941;28;20131;-65
2022/03/12 12:10:20;;;;;;;13.90;8.15;;;13.80;59.30;;;;;;5035773;28;20059;-66
2022/03/12 12:12:49;;;;;;;16.10;8.32;;;14.00;59.20;;;;;;5053829;28;20115;-66
2022/03/12 12:15:19;;;;;;;11.90;7.32;;;13.90;59.10;;;;;;5041698;28;20033;-64
2022/03/12 12:17:46;;;;;;;11.05;6.78;;;13.90;59.40;;;;;;5049078;28;20119;-67
2022/03/12 12:20:14;;;;;;;11.68;7.32;;;14.10;59.40;;;;;;5048094;28;20073;-64
2022/03/12 12:22:40;;;;;;;13.18;7.32;;;14.40;58.80;;;;;;5046235;28;20087;-63
2022/03/12 12:25:06;;;;;;;11.23;6.78;;;14.50;58.10;;;;;;5050336;28;20037;-65
2022/03/12 12:27:42;;;;;;;11.60;7.15;;;14.50;58.20;;;;;;5057867;28;20115;-64
2022/03/12 12:30:11;;;;;;;15.48;7.25;;;14.60;58.30;;;;;;5053900;28;20433;-65
2022/03/12 12:32:48;;;;;;;11.20;7.03;;;14.40;57.60;;;;;;5049515;28;20053;-65
2022/03/12 12:35:19;;;;;;;12.82;6.47;;;14.60;57.90;;;;;;5033947;28;20087;-65
2022/03/12 12:37:59;;;;;;;12.35;6.95;;;14.50;58.20;;;;;;5053733;28;20047;-65
2022/03/12 12:40:47;;;;;;;13.48;7.45;;;14.50;58.40;;;;;;5060121;28;20055;-66
2022/03/12 12:43:14;;;;;;;10.73;6.60;;;14.60;59.10;;;;;;5055235;28;20079;-65
2022/03/12 12:46:08;;;;;;;10.73;6.60;;;14.60;58.30;;;;;;5055893;28;20107;-66
2022/03/12 12:48:43;;;;;;;12.45;7.38;;;15.00;58.50;;;;;;5050257;28;20044;-65